Fonvind — JWYN — position and weather

sailwx.info

Track history (hours):
 
Tides and Currents Weather Stations Pressure Air Temp Water Temp Dewpoint Dewpoint Depression Visibility Wind Speed Wind Dir Waves Ship Positions

Fonvind

Last reported at 2016-Apr-30 17:16 UTC. Time now 2016-May-06 18:42 UTC.
Position N 66°10' E 012°40'.

Length 34 m; draft 3.5 m.

Type: Cargo ship. MMSI: 257322400.

Date/timePositionNaut miles runAvg speedWind from/ knotsBaromVisibWave heightAir tempDewpointWater temp
2016-Apr-30 17:16N 66°10' E 012°40'7 9.9
2016-Apr-30 16:33N 66°17' E 012°39'10 9.8
2016-Apr-30 15:34N 66°26' E 012°44'33 9.8
2016-Apr-30 12:11N 66°56' E 013°20'710.6
2016-Apr-30 11:34N 66°59' E 013°35'1010.4
2016-Apr-30 10:34N 67°06' E 013°57'1010.2
2016-Apr-30 09:34N 67°14' E 014°12'5 5.4
2016-Apr-30 08:34N 67°17' E 014°23'0 0.0
2016-Apr-30 07:33N 67°17' E 014°23'0 0.0
2016-Apr-30 06:33N 67°17' E 014°23'0 0.0
2016-Apr-30 05:34N 67°17' E 014°23'0 0.0
2016-Apr-30 04:34N 67°17' E 014°23'0 0.0
2016-Apr-30 03:33N 67°17' E 014°23'0 0.0
2016-Apr-30 02:33N 67°17' E 014°23'0 0.0
2016-Apr-30 01:33N 67°17' E 014°23'0 0.0
2016-Apr-30 00:34N 67°17' E 014°23'0 0.0
2016-Apr-29 23:33N 67°17' E 014°23'0 0.0
2016-Apr-29 22:33N 67°17' E 014°23'0 0.0
2016-Apr-29 21:34N 67°17' E 014°23'5 5.4
2016-Apr-29 20:34N 67°21' E 014°13'10 9.6
2016-Apr-29 19:33N 67°31' E 014°11'  
Track history (hours):
 
Tides and Currents Weather Stations Pressure Air Temp Water Temp Dewpoint Dewpoint Depression Visibility Wind Speed Wind Dir Waves Ship Positions

Fonvind

Last reported at 2016-Apr-30 17:16 UTC. Time now 2016-May-06 18:42 UTC.
Position N 66°10' E 012°40'.

Length 34 m; draft 3.5 m.

Type: Cargo ship. MMSI: 257322400.

Date/timePositionNaut miles runAvg speedWind from/ knotsBaromVisibWave heightAir tempDewpointWater temp
2016-Apr-30 17:16N 66°10' E 012°40'7 9.9
2016-Apr-30 16:33N 66°17' E 012°39'10 9.8
2016-Apr-30 15:34N 66°26' E 012°44'33 9.8
2016-Apr-30 12:11N 66°56' E 013°20'710.6
2016-Apr-30 11:34N 66°59' E 013°35'1010.4
2016-Apr-30 10:34N 67°06' E 013°57'1010.2
2016-Apr-30 09:34N 67°14' E 014°12'5 5.4
2016-Apr-30 08:34N 67°17' E 014°23'0 0.0
2016-Apr-30 07:33N 67°17' E 014°23'0 0.0
2016-Apr-30 06:33N 67°17' E 014°23'0 0.0
2016-Apr-30 05:34N 67°17' E 014°23'0 0.0
2016-Apr-30 04:34N 67°17' E 014°23'0 0.0
2016-Apr-30 03:33N 67°17' E 014°23'0 0.0
2016-Apr-30 02:33N 67°17' E 014°23'0 0.0
2016-Apr-30 01:33N 67°17' E 014°23'0 0.0
2016-Apr-30 00:34N 67°17' E 014°23'0 0.0
2016-Apr-29 23:33N 67°17' E 014°23'0 0.0
2016-Apr-29 22:33N 67°17' E 014°23'0 0.0
2016-Apr-29 21:34N 67°17' E 014°23'5 5.4
2016-Apr-29 20:34N 67°21' E 014°13'10 9.6
2016-Apr-29 19:33N 67°31' E 014°11'  

Dump ship's entire track history